Time;durP1;ratioP1;P1;durP2;ratioP2;P2;SDS_P1;SDS_P2;PMS_P1;PMS_P2;Temp;Humidity;BMP_temperature;BMP_pressure;BME280_temperature;BME280_humidity;BME280_pressure;Samples;Min_cycle;Max_cycle;Signal;HPM_P1;HPM_P2
2023/10/07 00:00:38;;;;;;;0.93;0.80;;;9.30;1.00;;;;;;5031538;28;20050;-77
2023/10/07 00:03:09;;;;;;;0.57;0.50;;;9.30;1.00;;;;;;5029592;28;20101;-89
2023/10/07 00:05:47;;;;;;;;;;;9.30;1.00;;;;;;5032516;28;20040;-75
2023/10/07 00:08:19;;;;;;;2.13;1.88;;;9.30;1.00;;;;;;5031403;28;20004;-75
2023/10/07 00:10:48;;;;;;;2.53;2.00;;;9.30;1.00;;;;;;5031760;28;20041;-75
2023/10/07 00:13:17;;;;;;;1.15;1.05;;;9.30;1.00;;;;;;5041588;28;20034;-74
2023/10/07 00:15:43;;;;;;;1.73;0.90;;;9.20;1.00;;;;;;5031342;28;20044;-74
2023/10/07 00:18:12;;;;;;;1.40;1.30;;;9.20;1.00;;;;;;5031186;28;20029;-74
2023/10/07 00:20:41;;;;;;;1.83;1.02;;;9.10;1.00;;;;;;5031277;28;20030;-74
2023/10/07 00:23:09;;;;;;;3.30;1.17;;;9.00;1.00;;;;;;5031454;28;20454;-74
2023/10/07 00:25:38;;;;;;;2.28;1.48;;;8.90;1.00;;;;;;5031365;28;20045;-74
2023/10/07 00:28:25;;;;;;;2.83;1.48;;;8.90;1.00;;;;;;5031414;28;20030;-74
2023/10/07 00:30:55;;;;;;;2.33;1.33;;;8.90;1.00;;;;;;5032148;28;20029;-74
2023/10/07 00:33:22;;;;;;;1.45;1.20;;;8.80;1.00;;;;;;5031011;28;20041;-74
2023/10/07 00:35:49;;;;;;;3.70;2.47;;;8.80;1.00;;;;;;5031313;28;20519;-74
2023/10/07 00:38:16;;;;;;;2.90;2.17;;;8.80;2.60;;;;;;5038294;28;20041;-74
2023/10/07 00:40:53;;;;;;;5.78;2.45;;;8.80;15.50;;;;;;5031062;28;20056;-75
2023/10/07 00:43:27;;;;;;;2.22;1.08;;;8.90;19.00;;;;;;5029947;28;20033;-74
2023/10/07 00:46:10;;;;;;;1.52;1.42;;;8.80;1.00;;;;;;5031374;28;20037;-75
2023/10/07 00:48:48;;;;;;;3.38;2.45;;;8.80;1.00;;;;;;5029344;28;20037;-74
2023/10/07 00:51:24;;;;;;;1.23;1.13;;;8.80;1.00;;;;;;5042358;28;20049;-74
2023/10/07 00:54:07;;;;;;;1.33;1.23;;;8.70;12.00;;;;;;5031268;28;20461;-74
2023/10/07 00:56:36;;;;;;;2.83;1.67;;;8.80;31.50;;;;;;5030761;28;20056;-74
2023/10/07 00:59:07;;;;;;;1.63;1.52;;;8.90;50.40;;;;;;5030996;28;20394;-76
2023/10/07 01:01:36;;;;;;;5.15;1.80;;;8.90;24.80;;;;;;5030104;28;20560;-74
2023/10/07 01:04:06;;;;;;;1.60;0.95;;;8.80;1.00;;;;;;5028626;28;20491;-74
2023/10/07 01:06:38;;;;;;;1.55;1.35;;;8.80;1.00;;;;;;5030229;28;20049;-74
2023/10/07 01:09:22;;;;;;;4.22;1.55;;;8.70;1.00;;;;;;5031009;28;20045;-74
2023/10/07 01:11:57;;;;;;;1.55;1.38;;;8.70;1.00;;;;;;5029454;28;20033;-74
2023/10/07 01:14:27;;;;;;;3.05;1.58;;;8.60;1.00;;;;;;5025351;28;20037;-74
2023/10/07 01:16:53;;;;;;;0.80;0.60;;;8.70;1.00;;;;;;5026553;28;20033;-76
2023/10/07 01:19:28;;;;;;;2.58;1.92;;;8.60;1.00;;;;;;5030808;28;20030;-74
2023/10/07 01:22:02;;;;;;;0.82;0.82;;;8.60;1.00;;;;;;5031885;28;20073;-76
2023/10/07 01:29:59;;;;;;;1.92;1.48;;;8.50;1.00;;;;;;5044595;28;20042;-75
2023/10/07 01:32:42;;;;;;;1.40;1.23;;;8.50;1.00;;;;;;5030111;28;20394;-75
2023/10/07 01:35:11;;;;;;;1.20;1.10;;;8.40;1.00;;;;;;5031169;28;20064;-75
2023/10/07 01:37:50;;;;;;;1.58;1.25;;;8.30;1.00;;;;;;5044411;28;20032;-74
2023/10/07 01:40:18;;;;;;;3.15;1.95;;;8.20;1.00;;;;;;5034300;28;20029;-75
2023/10/07 01:42:44;;;;;;;1.17;0.95;;;8.20;1.00;;;;;;5034984;28;20025;-74
2023/10/07 01:45:20;;;;;;;0.65;0.65;;;8.10;1.00;;;;;;5033661;28;20033;-82
2023/10/07 01:47:48;;;;;;;1.85;1.25;;;8.10;1.00;;;;;;5035277;28;20046;-74
2023/10/07 01:50:18;;;;;;;1.17;1.08;;;8.20;1.00;;;;;;5045050;28;20043;-74
2023/10/07 01:52:53;;;;;;;5.57;2.33;;;8.20;1.00;;;;;;5035048;28;20033;-74
2023/10/07 01:55:19;;;;;;;3.08;2.60;;;8.20;1.00;;;;;;5030127;28;20049;-74
2023/10/07 01:57:50;;;;;;;0.40;0.40;;;8.30;1.00;;;;;;5035063;28;20037;-74
2023/10/07 02:00:38;;;;;;;2.92;1.52;;;8.30;1.00;;;;;;5032324;28;20041;-75
2023/10/07 02:03:08;;;;;;;1.85;0.77;;;8.40;1.00;;;;;;5032894;28;20046;-74
2023/10/07 02:05:40;;;;;;;5.75;0.75;;;8.30;1.00;;;;;;5041078;28;20041;-74
2023/10/07 02:08:12;;;;;;;1.00;1.00;;;8.30;1.00;;;;;;5029544;28;20484;-75
2023/10/07 02:10:41;;;;;;;6.95;1.98;;;8.30;1.00;;;;;;5015309;28;20045;-74
2023/10/07 02:13:12;;;;;;;8.77;5.22;;;8.30;2.40;;;;;;5022953;28;20459;-74
2023/10/07 02:15:42;;;;;;;1.33;1.23;;;8.30;6.20;;;;;;5034593;28;20040;-75
2023/10/07 02:18:15;;;;;;;0.63;0.63;;;8.20;1.00;;;;;;5047978;28;20037;-78
2023/10/07 02:21:06;;;;;;;1.17;1.08;;;8.20;1.00;;;;;;5033889;28;20379;-76
2023/10/07 02:23:37;;;;;;;1.77;1.35;;;8.20;1.00;;;;;;5032851;28;20381;-76
2023/10/07 02:26:18;;;;;;;3.53;2.03;;;8.20;1.00;;;;;;5030798;28;20045;-76
2023/10/07 02:28:46;;;;;;;0.88;0.80;;;8.20;1.00;;;;;;5038926;28;20033;-76
2023/10/07 02:31:17;;;;;;;1.80;1.70;;;8.20;1.00;;;;;;5034341;28;20060;-86
2023/10/07 02:33:45;;;;;;;3.17;1.40;;;8.00;1.00;;;;;;5033809;28;20045;-75
2023/10/07 02:36:28;;;;;;;1.95;1.75;;;8.00;1.00;;;;;;5033988;28;20045;-76
2023/10/07 02:38:56;;;;;;;0.22;0.22;;;8.00;1.00;;;;;;5032752;28;20414;-78
2023/10/07 02:41:24;;;;;;;1.50;1.40;;;8.00;1.00;;;;;;5033067;28;20030;-75
2023/10/07 02:43:50;;;;;;;3.17;1.70;;;8.00;1.00;;;;;;5034084;28;20042;-76
2023/10/07 02:49:14;;;;;;;2.67;2.25;;;8.00;1.00;;;;;;5036692;28;20033;-76
2023/10/07 02:51:49;;;;;;;1.77;1.58;;;8.00;1.00;;;;;;5038576;28;20048;-79
2023/10/07 02:54:19;;;;;;;0.82;0.77;;;8.00;1.00;;;;;;5033655;28;20104;-83
2023/10/07 02:56:56;;;;;;;0.47;0.47;;;7.90;1.00;;;;;;5033624;28;20406;-76
2023/10/07 02:59:36;;;;;;;2.47;1.88;;;7.80;1.00;;;;;;5032685;28;20068;-76
2023/10/07 03:05:12;;;;;;;5.18;1.08;;;7.80;1.00;;;;;;5032892;28;20398;-76
2023/10/07 03:07:41;;;;;;;1.55;1.45;;;7.70;1.00;;;;;;5046745;28;20383;-76
2023/10/07 03:12:56;;;;;;;0.50;0.50;;;7.50;1.00;;;;;;5030783;28;20034;-75
2023/10/07 03:15:41;;;;;;;0.68;0.68;;;7.40;1.00;;;;;;5032957;28;20054;-76
2023/10/07 03:18:30;;;;;;;2.00;1.40;;;7.40;4.00;;;;;;5032925;28;20391;-78
2023/10/07 03:21:00;;;;;;;1.48;1.38;;;7.40;36.20;;;;;;5032922;28;20029;-76
2023/10/07 03:23:34;;;;;;;0.65;0.65;;;7.40;80.60;;;;;;5032100;28;20029;-76
2023/10/07 03:28:36;;;;;;;1.27;1.20;;;7.40;99.90;;;;;;5031043;28;20395;-75
2023/10/07 03:31:08;;;;;;;5.82;1.83;;;7.50;99.90;;;;;;5033864;28;20049;-76
2023/10/07 03:33:58;;;;;;;1.80;0.93;;;7.50;99.90;;;;;;5032537;28;20037;-76
2023/10/07 03:36:31;;;;;;;0.65;0.65;;;7.50;99.90;;;;;;5030319;28;20034;-78
2023/10/07 03:41:52;;;;;;;1.88;1.58;;;7.60;99.90;;;;;;5031506;28;20053;-75
2023/10/07 03:44:20;;;;;;;0.95;0.85;;;7.80;99.90;;;;;;5030130;28;20026;-89
2023/10/07 03:46:48;;;;;;;0.77;0.63;;;7.80;99.90;;;;;;5029554;28;20049;-75
2023/10/07 03:49:15;;;;;;;4.00;1.60;;;7.80;99.90;;;;;;5032496;28;20048;-75
2023/10/07 03:51:42;;;;;;;3.83;1.80;;;7.80;99.90;;;;;;5031919;28;20041;-75
2023/10/07 03:54:29;;;;;;;1.15;1.05;;;7.80;99.90;;;;;;5031250;28;20367;-75
2023/10/07 03:57:02;;;;;;;0.70;0.70;;;7.80;99.90;;;;;;5032087;28;20038;-75
2023/10/07 03:59:34;;;;;;;1.63;1.52;;;7.70;99.90;;;;;;5031448;28;20045;-75
2023/10/07 04:05:10;;;;;;;2.92;1.23;;;7.70;99.90;;;;;;5026836;28;20049;-74
2023/10/07 04:07:43;;;;;;;2.22;1.88;;;7.70;99.90;;;;;;5032213;28;20048;-75
2023/10/07 04:10:54;;;;;;;2.33;1.30;;;7.60;99.90;;;;;;5032328;28;20036;-74
2023/10/07 04:12:58;;;;;;;1.65;1.48;;;7.60;99.90;;;;;;5029205;28;20479;-75
2023/10/07 04:15:34;;;;;;;4.38;2.38;;;7.60;99.90;;;;;;5031701;28;20029;-74
2023/10/07 04:18:00;;;;;;;0.90;0.90;;;7.60;99.90;;;;;;5046501;28;20081;-75
2023/10/07 04:20:42;;;;;;;2.47;2.08;;;7.70;99.90;;;;;;5031641;28;20030;-75
2023/10/07 04:23:08;;;;;;;2.78;2.15;;;7.60;99.90;;;;;;5024945;28;20060;-75
2023/10/07 04:25:43;;;;;;;2.58;1.80;;;7.70;99.90;;;;;;5031658;28;20046;-75
2023/10/07 04:28:13;;;;;;;0.85;0.85;;;7.80;99.90;;;;;;5031226;28;20044;-75
2023/10/07 04:30:40;;;;;;;1.58;0.85;;;7.80;99.90;;;;;;5031569;28;20449;-76
2023/10/07 04:33:08;;;;;;;2.30;1.40;;;7.80;99.90;;;;;;5032244;28;20398;-75
2023/10/07 04:35:34;;;;;;;5.18;2.05;;;7.80;99.90;;;;;;5031996;28;20053;-75
2023/10/07 04:38:18;;;;;;;2.30;0.88;;;7.90;99.90;;;;;;5032393;28;20052;-75
2023/10/07 04:41:30;;;;;;;7.13;1.98;;;7.90;99.90;;;;;;5028198;28;20029;-75
2023/10/07 04:43:50;;;;;;;1.85;1.67;;;7.90;99.90;;;;;;5024958;28;20033;-75
2023/10/07 04:46:23;;;;;;;3.25;2.25;;;7.90;99.90;;;;;;5031367;28;20485;-75
2023/10/07 04:48:54;;;;;;;3.40;1.52;;;7.90;99.90;;;;;;5031408;28;20037;-75
2023/10/07 04:51:46;;;;;;;1.73;1.63;;;7.90;99.90;;;;;;5029870;28;20040;-80
2023/10/07 04:54:20;;;;;;;1.90;1.70;;;7.90;99.90;;;;;;5029891;28;20053;-76
2023/10/07 04:56:53;;;;;;;2.83;2.15;;;7.90;99.90;;;;;;5031482;28;20463;-76
2023/10/07 04:59:21;;;;;;;4.32;2.30;;;7.90;99.90;;;;;;5031362;28;20380;-76
2023/10/07 05:01:55;;;;;;;2.35;1.77;;;7.90;99.90;;;;;;5030279;28;20044;-76
2023/10/07 05:04:24;;;;;;;1.23;1.10;;;7.80;99.90;;;;;;5030379;28;20351;-84
2023/10/07 05:06:51;;;;;;;1.25;1.15;;;7.80;99.90;;;;;;5031275;28;20044;-76
2023/10/07 05:09:21;;;;;;;1.63;1.50;;;7.90;99.90;;;;;;5031503;28;20033;-76
2023/10/07 05:11:48;;;;;;;0.35;0.35;;;7.80;99.90;;;;;;5031240;28;20351;-76
2023/10/07 05:14:17;;;;;;;6.38;1.52;;;7.90;99.90;;;;;;5031660;28;20359;-76
2023/10/07 05:16:46;;;;;;;2.83;1.95;;;7.90;99.90;;;;;;5027817;28;20433;-77
2023/10/07 05:19:22;;;;;;;8.48;1.70;;;7.90;99.90;;;;;;5031298;28;20037;-76
2023/10/07 05:22:00;;;;;;;1.23;1.15;;;7.90;99.90;;;;;;5029711;28;20036;-76
2023/10/07 05:24:32;;;;;;;1.90;1.55;;;7.90;99.90;;;;;;5031007;28;20041;-76
2023/10/07 05:27:02;;;;;;;2.92;1.60;;;8.00;99.90;;;;;;5030831;28;20391;-76
2023/10/07 05:29:29;;;;;;;2.10;1.15;;;8.00;99.90;;;;;;5027048;28;20041;-76
2023/10/07 05:31:58;;;;;;;14.20;2.10;;;8.10;99.90;;;;;;5030844;28;20053;-76
2023/10/07 05:34:28;;;;;;;1.23;1.13;;;8.10;99.90;;;;;;5030325;28;20406;-86
2023/10/07 05:37:03;;;;;;;1.48;1.15;;;8.10;99.90;;;;;;5030872;28;20471;-76
2023/10/07 05:39:32;;;;;;;1.58;1.42;;;8.20;99.90;;;;;;5023523;28;20036;-75
2023/10/07 05:41:58;;;;;;;6.40;1.77;;;8.20;99.90;;;;;;5031226;28;20042;-76
2023/10/07 05:44:25;;;;;;;3.20;2.40;;;8.20;99.90;;;;;;5030365;28;20034;-89
2023/10/07 05:46:51;;;;;;;7.63;2.78;;;8.30;99.90;;;;;;5030599;28;20038;-75
2023/10/07 05:49:18;;;;;;;1.30;1.23;;;8.40;99.90;;;;;;5030865;28;20037;-75
2023/10/07 05:51:46;;;;;;;1.85;1.40;;;8.50;99.90;;;;;;5030993;28;20030;-74
2023/10/07 05:54:12;;;;;;;1.27;0.80;;;8.50;99.90;;;;;;5029530;28;20025;-73
2023/10/07 05:56:41;;;;;;;7.78;2.50;;;8.60;99.90;;;;;;5029048;28;20038;-74
2023/10/07 05:59:09;;;;;;;9.65;2.13;;;8.60;99.90;;;;;;5029248;28;20053;-74
2023/10/07 06:01:35;;;;;;;1.67;1.25;;;8.70;99.90;;;;;;5029645;28;20038;-76
2023/10/07 06:04:02;;;;;;;2.45;1.70;;;8.70;99.90;;;;;;5029812;28;20108;-80
2023/10/07 06:06:30;;;;;;;4.68;2.33;;;8.80;99.90;;;;;;5030950;28;20054;-74
2023/10/07 06:09:00;;;;;;;0.88;0.40;;;8.90;99.90;;;;;;5027894;28;20029;-74
2023/10/07 06:11:32;;;;;;;1.67;1.08;;;8.90;99.90;;;;;;5029265;28;20040;-88
2023/10/07 06:13:59;;;;;;;2.33;1.33;;;8.90;99.90;;;;;;5029666;28;20037;-74
2023/10/07 06:16:26;;;;;;;4.93;2.08;;;9.00;99.90;;;;;;5030061;28;20044;-75
2023/10/07 06:18:53;;;;;;;2.55;2.15;;;9.00;99.90;;;;;;5029578;28;20032;-74
2023/10/07 06:21:25;;;;;;;1.88;1.77;;;9.10;99.90;;;;;;5030031;28;20041;-74
2023/10/07 06:23:53;;;;;;;0.40;0.40;;;9.20;99.90;;;;;;5033504;28;20029;-74
2023/10/07 06:26:19;;;;;;;2.05;1.85;;;9.30;47.80;;;;;;5033924;28;20037;-74
2023/10/07 06:28:48;;;;;;;1.95;1.20;;;9.40;25.40;;;;;;5033496;28;20124;-74
2023/10/07 06:31:22;;;;;;;3.03;1.15;;;9.40;10.70;;;;;;5033748;28;20099;-76
2023/10/07 06:34:12;;;;;;;6.10;3.05;;;9.40;1.00;;;;;;5032505;28;20391;-76
2023/10/07 06:36:40;;;;;;;7.30;2.42;;;9.50;1.00;;;;;;5032001;28;20033;-75
2023/10/07 06:39:07;;;;;;;2.05;1.52;;;9.50;1.00;;;;;;5033277;28;20021;-75
2023/10/07 06:41:36;;;;;;;13.70;2.05;;;9.50;1.00;;;;;;5032613;28;20037;-74
2023/10/07 06:44:03;;;;;;;3.90;1.88;;;9.60;1.00;;;;;;5033396;28;20401;-75
2023/10/07 06:47:17;;;;;;;1.48;1.38;;;9.70;1.00;;;;;;5032773;28;20041;-75
2023/10/07 06:49:20;;;;;;;1.55;1.42;;;9.70;1.00;;;;;;5029312;28;20048;-74
2023/10/07 06:51:53;;;;;;;0.77;0.77;;;9.80;1.00;;;;;;5031829;28;20049;-75
2023/10/07 06:54:20;;;;;;;3.50;1.27;;;10.00;1.00;;;;;;5033762;28;20052;-74
2023/10/07 06:56:49;;;;;;;1.90;1.73;;;10.00;1.00;;;;;;5032791;28;20048;-74
2023/10/07 06:59:16;;;;;;;4.75;1.83;;;10.10;1.00;;;;;;5032969;28;20037;-74
2023/10/07 07:04:18;;;;;;;1.80;0.75;;;10.30;99.90;;;;;;5032951;28;20040;-74
2023/10/07 07:06:57;;;;;;;0.98;0.88;;;10.40;99.90;;;;;;5032581;28;20387;-74
2023/10/07 07:09:42;;;;;;;1.98;1.70;;;10.50;99.90;;;;;;5031897;28;20053;-74
2023/10/07 07:12:09;;;;;;;2.97;2.20;;;10.60;99.90;;;;;;5032561;28;20064;-74
2023/10/07 07:14:51;;;;;;;0.70;0.70;;;10.60;99.90;;;;;;5031413;28;20064;-74
2023/10/07 07:22:45;;;;;;;8.52;1.73;;;10.80;99.90;;;;;;5030347;28;20033;-73
2023/10/07 07:27:53;;;;;;;3.03;0.60;;;10.80;99.90;;;;;;5031375;28;20489;-74
2023/10/07 07:30:29;;;;;;;4.22;1.33;;;10.80;99.90;;;;;;5031489;28;20040;-74
2023/10/07 07:33:00;;;;;;;2.65;1.83;;;10.80;99.90;;;;;;5044249;28;20394;-74
2023/10/07 07:35:38;;;;;;;1.63;0.85;;;10.90;99.90;;;;;;5031239;28;20119;-74
2023/10/07 07:38:30;;;;;;;4.40;1.52;;;11.00;99.90;;;;;;5029810;28;20033;-74
2023/10/07 07:41:28;;;;;;;4.60;1.83;;;11.00;99.90;;;;;;5030362;28;20033;-74
2023/10/07 07:43:53;;;;;;;2.72;0.90;;;11.10;99.90;;;;;;5028889;28;20042;-75
2023/10/07 07:49:08;;;;;;;5.13;2.00;;;11.10;99.90;;;;;;5031693;28;20040;-75
2023/10/07 07:51:39;;;;;;;1.10;0.87;;;11.20;99.90;;;;;;5029850;28;20497;-74
2023/10/07 07:54:07;;;;;;;1.80;0.77;;;11.30;99.90;;;;;;5031092;28;20040;-74
2023/10/07 07:56:37;;;;;;;1.80;1.08;;;11.40;99.90;;;;;;5030850;28;20061;-75
2023/10/07 07:59:17;;;;;;;7.78;2.65;;;11.50;99.90;;;;;;5034925;28;20052;-76
2023/10/07 08:01:50;;;;;;;0.57;0.50;;;11.60;99.10;;;;;;5030247;28;20042;-74
2023/10/07 08:04:17;;;;;;;5.32;1.38;;;11.70;82.50;;;;;;5030434;28;20025;-75
2023/10/07 08:06:47;;;;;;;0.88;0.85;;;11.80;77.90;;;;;;5030120;28;20048;-75
2023/10/07 08:09:13;;;;;;;5.53;0.60;;;11.80;74.40;;;;;;5030846;28;20037;-75
2023/10/07 08:11:40;;;;;;;1.52;1.40;;;11.90;67.20;;;;;;5030320;28;20044;-74
2023/10/07 08:14:10;;;;;;;0.70;0.50;;;11.90;64.00;;;;;;5030456;28;20030;-74
2023/10/07 08:16:51;;;;;;;1.50;1.40;;;11.90;66.20;;;;;;5030122;28;20737;-75
2023/10/07 08:19:20;;;;;;;1.10;1.00;;;12.00;31.30;;;;;;5028563;28;20045;-75
2023/10/07 08:21:51;;;;;;;0.85;0.80;;;12.00;31.10;;;;;;5029161;28;20074;-74
2023/10/07 08:24:21;;;;;;;;;;;12.10;29.40;;;;;;5029458;28;20026;-74
2023/10/07 08:26:56;;;;;;;0.75;0.75;;;12.20;30.50;;;;;;5028906;28;19913;-74
2023/10/07 08:29:40;;;;;;;0.35;0.35;;;12.20;29.70;;;;;;5031216;28;20493;-74
2023/10/07 08:32:29;;;;;;;0.65;0.65;;;12.30;6.60;;;;;;5028548;28;20760;-74
2023/10/07 08:34:59;;;;;;;2.47;2.28;;;12.50;12.90;;;;;;5029819;28;20040;-75
2023/10/07 08:37:32;;;;;;;9.03;1.00;;;12.60;1.00;;;;;;5030343;28;20045;-74
2023/10/07 08:40:10;;;;;;;5.03;1.25;;;12.80;1.00;;;;;;5029567;28;20128;-75
2023/10/07 08:42:37;;;;;;;1.15;0.90;;;12.80;1.00;;;;;;5026700;28;20044;-74
2023/10/07 08:45:14;;;;;;;0.80;0.80;;;12.90;1.00;;;;;;5030085;28;20040;-73
2023/10/07 08:47:49;;;;;;;2.03;1.05;;;13.00;1.00;;;;;;5027958;28;20061;-76
2023/10/07 08:50:23;;;;;;;1.33;1.08;;;13.10;1.00;;;;;;5029486;28;20038;-74
2023/10/07 08:53:06;;;;;;;1.70;0.75;;;13.30;1.00;;;;;;5027080;28;20034;-74
2023/10/07 08:55:33;;;;;;;1.42;0.75;;;13.40;1.00;;;;;;5026379;28;20070;-75
2023/10/07 08:58:03;;;;;;;0.70;0.70;;;13.60;1.00;;;;;;5027693;28;20041;-74
2023/10/07 09:00:32;;;;;;;2.70;2.10;;;13.70;1.00;;;;;;5027090;28;20049;-73
2023/10/07 09:02:59;;;;;;;1.65;0.80;;;13.90;1.00;;;;;;5029029;28;20042;-73
2023/10/07 09:05:29;;;;;;;3.13;0.77;;;14.20;99.90;;;;;;5029871;28;20040;-73
2023/10/07 09:07:56;;;;;;;0.70;0.57;;;14.50;99.90;;;;;;5029576;28;20337;-74
2023/10/07 09:10:28;;;;;;;0.13;0.13;;;15.00;99.90;;;;;;5030121;28;20040;-76
2023/10/07 09:13:03;;;;;;;0.80;0.43;;;15.50;99.90;;;;;;5029747;28;20073;-75
2023/10/07 09:15:35;;;;;;;0.75;0.75;;;15.70;99.90;;;;;;5030084;28;20030;-74
2023/10/07 09:18:05;;;;;;;1.02;0.65;;;15.90;99.90;;;;;;5029688;28;20466;-73
2023/10/07 09:20:32;;;;;;;3.97;1.52;;;15.90;99.90;;;;;;5030635;28;20029;-74
2023/10/07 09:23:14;;;;;;;2.70;1.20;;;16.00;99.90;;;;;;5029753;28;20060;-74
2023/10/07 09:25:50;;;;;;;0.88;0.77;;;15.90;99.90;;;;;;5030142;28;20026;-73
2023/10/07 09:28:19;;;;;;;1.02;1.02;;;15.90;99.90;;;;;;5030368;28;20044;-74
2023/10/07 09:30:48;;;;;;;0.75;0.75;;;16.10;99.90;;;;;;5028748;28;20036;-77
2023/10/07 09:33:21;;;;;;;0.80;0.50;;;16.40;99.90;;;;;;5030469;28;20490;-74
2023/10/07 09:36:00;;;;;;;2.70;0.70;;;16.70;92.40;;;;;;5029476;28;20026;-74
2023/10/07 09:41:12;;;;;;;0.47;0.47;;;16.90;64.70;;;;;;5028030;28;20648;-74
2023/10/07 09:43:47;;;;;;;1.77;1.17;;;16.90;34.90;;;;;;5030007;28;20036;-83
2023/10/07 09:46:27;;;;;;;1.00;0.90;;;17.00;4.60;;;;;;5029012;28;20044;-74
2023/10/07 09:48:57;;;;;;;5.57;1.20;;;17.10;11.60;;;;;;5028922;28;20045;-73
2023/10/07 09:51:28;;;;;;;0.68;0.52;;;17.20;1.00;;;;;;5028343;28;20044;-73
2023/10/07 09:54:22;;;;;;;1.50;0.75;;;17.40;1.00;;;;;;5029238;28;20394;-73
2023/10/07 09:57:19;;;;;;;0.60;0.50;;;17.60;1.00;;;;;;5026470;28;20061;-73
2023/10/07 10:00:37;;;;;;;1.27;0.75;;;17.60;1.00;;;;;;5029387;28;20386;-73
2023/10/07 10:03:20;;;;;;;0.55;0.30;;;17.50;1.00;;;;;;5029913;28;20148;-75
2023/10/07 10:06:17;;;;;;;0.75;0.50;;;17.60;1.00;;;;;;5031538;28;20029;-73
2023/10/07 10:08:57;;;;;;;1.50;0.90;;;17.60;1.00;;;;;;5031328;28;20045;-73
2023/10/07 10:11:31;;;;;;;0.65;0.65;;;17.40;1.00;;;;;;5031783;28;20380;-75
2023/10/07 10:16:57;;;;;;;2.85;1.85;;;17.40;1.00;;;;;;5029850;28;20037;-76
2023/10/07 10:19:25;;;;;;;0.55;0.55;;;17.40;1.00;;;;;;5029953;28;20418;-76
2023/10/07 10:21:53;;;;;;;0.82;0.82;;;17.50;1.00;;;;;;5031607;28;20140;-78
2023/10/07 10:24:23;;;;;;;1.08;0.85;;;17.50;1.00;;;;;;5027520;28;20037;-75
2023/10/07 10:26:50;;;;;;;1.98;0.70;;;17.60;1.00;;;;;;5030371;28;20049;-73
2023/10/07 10:29:25;;;;;;;3.13;1.25;;;17.60;1.00;;;;;;5030727;28;20034;-74
2023/10/07 10:32:00;;;;;;;1.75;0.40;;;17.70;1.00;;;;;;5031265;28;20040;-74
2023/10/07 10:34:26;;;;;;;0.88;0.35;;;17.70;1.00;;;;;;5031814;28;20048;-74
2023/10/07 10:36:56;;;;;;;2.42;1.40;;;17.80;1.00;;;;;;5031371;28;20052;-75
2023/10/07 10:39:26;;;;;;;1.08;0.65;;;17.90;1.00;;;;;;5027199;28;20029;-73
2023/10/07 10:41:56;;;;;;;0.30;0.30;;;17.90;1.00;;;;;;5041254;28;20042;-74
2023/10/07 10:44:22;;;;;;;0.20;0.20;;;18.00;1.00;;;;;;5032012;28;20029;-74
2023/10/07 10:46:51;;;;;;;2.13;0.50;;;18.10;1.00;;;;;;5032070;28;20029;-74
2023/10/07 10:49:21;;;;;;;0.75;0.75;;;18.20;1.00;;;;;;5032484;28;20033;-74
2023/10/07 10:51:50;;;;;;;1.95;1.27;;;18.10;1.00;;;;;;5027655;28;20034;-74
2023/10/07 10:54:18;;;;;;;2.00;1.00;;;18.20;1.00;;;;;;5033979;28;20487;-74
2023/10/07 10:56:48;;;;;;;0.73;0.73;;;18.30;1.00;;;;;;5029926;28;20040;-74
2023/10/07 10:59:15;;;;;;;;;;;18.30;1.00;;;;;;5033007;28;20056;-75
2023/10/07 11:01:44;;;;;;;0.65;0.43;;;18.20;1.00;;;;;;5032710;28;19920;-74
2023/10/07 11:04:12;;;;;;;0.40;0.40;;;18.30;1.00;;;;;;5032938;28;20048;-75
2023/10/07 11:06:41;;;;;;;1.10;0.80;;;18.30;1.00;;;;;;5032194;28;20033;-74
2023/10/07 11:09:09;;;;;;;4.25;0.88;;;18.30;1.00;;;;;;5032424;28;20048;-74
2023/10/07 11:11:37;;;;;;;1.00;0.63;;;18.40;1.00;;;;;;5030689;28;20037;-75
2023/10/07 11:14:09;;;;;;;0.43;0.43;;;18.50;99.90;;;;;;5032512;28;20239;-74
2023/10/07 11:16:46;;;;;;;0.82;0.68;;;18.50;1.00;;;;;;5032308;28;20056;-75
2023/10/07 11:19:14;;;;;;;0.43;0.43;;;18.60;99.90;;;;;;5032028;28;20044;-74
2023/10/07 11:21:44;;;;;;;2.17;0.60;;;18.60;99.90;;;;;;5032335;28;20044;-75
2023/10/07 11:24:22;;;;;;;1.57;1.47;;;18.70;99.90;;;;;;5031396;28;20046;-74
2023/10/07 11:26:49;;;;;;;0.63;0.63;;;18.70;99.90;;;;;;5031540;28;20037;-76
2023/10/07 11:29:16;;;;;;;0.30;0.30;;;18.80;99.90;;;;;;5031569;28;20032;-75
2023/10/07 11:31:42;;;;;;;0.30;0.30;;;18.60;99.90;;;;;;5032023;28;20033;-74
2023/10/07 11:34:10;;;;;;;1.88;0.80;;;18.70;99.90;;;;;;5031597;28;20033;-75
2023/10/07 11:36:44;;;;;;;8.70;7.10;;;18.70;99.90;;;;;;5031464;28;20072;-75
2023/10/07 11:39:13;;;;;;;5.35;3.28;;;18.60;99.90;;;;;;5032279;28;20052;-73
2023/10/07 11:41:41;;;;;;;1.33;1.23;;;18.60;99.90;;;;;;5032480;28;20037;-74
2023/10/07 11:44:12;;;;;;;0.50;0.40;;;18.60;99.90;;;;;;5031584;28;20029;-75
2023/10/07 11:46:41;;;;;;;4.78;0.95;;;18.50;99.90;;;;;;5031755;28;20029;-74
2023/10/07 11:49:08;;;;;;;1.23;0.50;;;18.40;1.00;;;;;;5030859;28;20040;-74
2023/10/07 11:51:34;;;;;;;0.47;0.47;;;18.40;1.00;;;;;;5030796;28;20025;-75
2023/10/07 11:54:01;;;;;;;0.65;0.60;;;18.50;99.90;;;;;;5030685;28;20046;-76
2023/10/07 11:56:27;;;;;;;0.20;0.20;;;18.60;99.90;;;;;;5032026;28;20112;-74
2023/10/07 11:58:54;;;;;;;0.52;0.52;;;18.60;99.90;;;;;;5032873;28;20463;-74
2023/10/07 12:01:23;;;;;;;0.65;0.63;;;18.70;99.90;;;;;;5033622;28;20612;-74
2023/10/07 12:03:49;;;;;;;3.50;0.40;;;18.70;99.90;;;;;;5031276;28;20037;-74
2023/10/07 12:06:15;;;;;;;0.30;0.30;;;18.80;99.90;;;;;;5031509;28;20029;-74
2023/10/07 12:08:42;;;;;;;1.65;0.63;;;18.80;99.90;;;;;;5031942;28;20147;-74
2023/10/07 12:11:08;;;;;;;0.63;0.63;;;19.00;99.90;;;;;;5031482;28;20347;-73
2023/10/07 12:13:35;;;;;;;0.32;0.32;;;19.30;99.90;;;;;;5032149;28;20040;-74
2023/10/07 12:16:01;;;;;;;14.98;2.00;;;19.40;99.90;;;;;;5031067;28;20045;-74
2023/10/07 12:18:27;;;;;;;0.30;0.30;;;19.30;99.90;;;;;;5031682;28;20037;-75
2023/10/07 12:20:55;;;;;;;1.88;0.93;;;19.30;99.90;;;;;;5030872;28;20037;-74
2023/10/07 12:23:22;;;;;;;0.10;0.10;;;19.40;99.90;;;;;;5030745;28;20447;-73
2023/10/07 12:25:49;;;;;;;1.00;0.77;;;19.40;99.90;;;;;;5029283;28;20264;-85
2023/10/07 12:28:16;;;;;;;0.63;0.63;;;19.50;99.90;;;;;;5030191;28;20044;-75
2023/10/07 12:30:44;;;;;;;0.20;0.20;;;19.60;99.90;;;;;;5030966;28;20040;-74
2023/10/07 12:33:10;;;;;;;0.63;0.57;;;19.60;99.90;;;;;;5030409;28;20037;-75
2023/10/07 12:35:37;;;;;;;0.55;0.55;;;19.50;99.90;;;;;;5030961;28;20442;-74
2023/10/07 12:38:03;;;;;;;1.75;0.73;;;19.40;99.90;;;;;;5041837;28;20041;-75
2023/10/07 12:40:29;;;;;;;2.78;0.65;;;19.30;99.90;;;;;;5029162;28;20124;-74
2023/10/07 12:42:56;;;;;;;0.52;0.52;;;19.30;99.90;;;;;;5030196;28;20028;-75
2023/10/07 12:45:23;;;;;;;0.32;0.32;;;19.20;99.90;;;;;;5031386;28;20533;-75
2023/10/07 12:47:54;;;;;;;0.47;0.25;;;19.30;99.90;;;;;;5030583;28;20037;-88
2023/10/07 12:50:23;;;;;;;0.28;0.28;;;19.40;99.90;;;;;;5029507;28;20033;-75
2023/10/07 12:52:52;;;;;;;0.30;0.30;;;19.60;99.90;;;;;;5031396;28;20490;-82
2023/10/07 12:55:18;;;;;;;0.35;0.35;;;19.80;99.90;;;;;;5029616;28;20029;-74
2023/10/07 12:57:45;;;;;;;4.22;1.20;;;20.00;99.90;;;;;;5031904;28;20475;-74
2023/10/07 13:00:31;;;;;;;0.63;0.35;;;20.30;99.90;;;;;;5030573;28;20072;-75
2023/10/07 13:02:58;;;;;;;0.38;0.38;;;20.60;99.90;;;;;;5030362;28;20491;-74
2023/10/07 13:05:24;;;;;;;4.47;0.35;;;20.90;99.90;;;;;;5030475;28;20041;-74
2023/10/07 13:07:53;;;;;;;1.13;0.70;;;20.90;99.90;;;;;;5029552;28;20037;-81
2023/10/07 13:10:20;;;;;;;4.95;0.40;;;20.70;99.90;;;;;;5028491;28;20335;-73
2023/10/07 13:12:49;;;;;;;2.55;0.52;;;20.70;99.90;;;;;;5030584;28;20038;-73
2023/10/07 13:15:16;;;;;;;1.10;0.47;;;20.80;99.90;;;;;;5030185;28;20044;-72
2023/10/07 13:17:45;;;;;;;0.55;0.43;;;20.80;99.90;;;;;;5029600;28;20037;-76
2023/10/07 13:20:23;;;;;;;0.40;0.40;;;20.80;99.90;;;;;;5029987;28;20029;-75
2023/10/07 13:22:50;;;;;;;0.43;0.43;;;20.80;99.90;;;;;;5029031;28;20028;-73
2023/10/07 13:25:19;;;;;;;0.25;0.25;;;20.90;99.90;;;;;;5028718;28;20033;-75
2023/10/07 13:27:46;;;;;;;0.28;0.22;;;21.10;99.90;;;;;;5030071;28;20064;-74
2023/10/07 13:30:14;;;;;;;0.73;0.70;;;21.20;99.90;;;;;;5030221;28;20032;-73
2023/10/07 13:32:40;;;;;;;0.35;0.35;;;21.30;99.90;;;;;;5030737;28;20030;-75
2023/10/07 13:35:17;;;;;;;0.40;0.40;;;21.40;82.90;;;;;;5033983;28;20029;-73
2023/10/07 13:37:44;;;;;;;0.30;0.20;;;21.50;57.30;;;;;;5033749;28;20045;-75
2023/10/07 13:40:17;;;;;;;1.27;0.55;;;21.30;77.30;;;;;;5033123;28;20040;-74
2023/10/07 13:42:49;;;;;;;0.22;0.22;;;21.40;64.80;;;;;;5036330;28;20037;-73
2023/10/07 13:45:26;;;;;;;0.47;0.40;;;21.30;43.60;;;;;;5033170;28;20379;-74
2023/10/07 13:47:54;;;;;;;0.40;0.40;;;21.20;33.00;;;;;;5033108;28;20041;-85
2023/10/07 13:50:25;;;;;;;0.95;0.85;;;21.20;23.10;;;;;;5033998;28;20041;-73
2023/10/07 13:55:33;;;;;;;0.47;0.43;;;21.30;26.40;;;;;;5033931;28;20038;-74
2023/10/07 13:58:00;;;;;;;0.65;0.55;;;21.20;8.90;;;;;;5033688;28;20033;-73
2023/10/07 14:00:51;;;;;;;1.35;0.85;;;21.30;13.20;;;;;;5033907;28;20461;-73
2023/10/07 14:03:19;;;;;;;0.15;0.15;;;21.30;10.90;;;;;;5033400;28;20053;-72